Ever Diamond — 3FQS8 — position and weather

sailwx.info

Track history (hours):
 
Tides and Currents Weather Stations Pressure Air Temp Water Temp Dewpoint Dewpoint Depression Visibility Wind Speed Wind Dir Waves Ship Positions

Ever Diamond

Last reported at 2015-Aug-07 10:09 UTC. Time now 2015-Sep-01 14:13 UTC.
Position N 38°48' W 071°54'.
Warning: this ship's position is 25 days out of date.

Type: Ship (hazmat cat D). MMSI: 354893000.

Date/timePositionNaut miles runAvg speedWind from/ knotsBaromVisibWave heightAir tempDewpointWater temp
2015-Aug-07 10:09N 38°48' W 071°54'1016.2
2015-Aug-07 09:33N 38°55' W 072°02'1616.2
2015-Aug-07 08:34N 39°07' W 072°16'1616.4
2015-Aug-07 07:33N 39°19' W 072°30'1716.6
2015-Aug-07 06:31N 39°32' W 072°45'1616.8
2015-Aug-07 05:34N 39°44' W 072°60'1716.9
2015-Aug-07 04:34N 39°56' W 073°15'1816.9
2015-Aug-07 03:30N 40°10' W 073°30'1616.7
2015-Aug-07 02:34N 40°22' W 073°43'1413.4
2015-Aug-07 01:33N 40°30' W 073°57'1111.2
2015-Aug-07 00:34N 40°39' W 074°06'2 2.1
2015-Aug-06 23:33N 40°40' W 074°08'1 0.8
2015-Aug-06 22:33N 40°41' W 074°09'0 0.0
2015-Aug-06 21:33N 40°41' W 074°09'0 0.0
2015-Aug-06 20:33N 40°41' W 074°09'0 0.0
2015-Aug-06 19:32N 40°41' W 074°09'0 0.0
2015-Aug-06 18:32N 40°41' W 074°09'0 0.0
2015-Aug-06 17:32N 40°41' W 074°09'0 0.0
2015-Aug-06 16:32N 40°41' W 074°09'0 0.0
2015-Aug-06 15:32N 40°41' W 074°09'0 0.0
2015-Aug-06 14:32N 40°41' W 074°09'0 0.0
2015-Aug-06 13:32N 40°41' W 074°09'0 0.0
2015-Aug-06 12:34N 40°41' W 074°09'0 0.0
2015-Aug-06 11:31N 40°41' W 074°09'0 0.1
2015-Aug-06 10:34N 40°41' W 074°09'2 2.4
2015-Aug-06 09:34N 40°39' W 074°09'5 5.1
2015-Aug-06 08:34N 40°36' W 074°03'8 8.4
2015-Aug-06 07:34N 40°30' W 073°56'10 9.6
2015-Aug-06 06:33N 40°23' W 073°46'1010.4
2015-Aug-06 05:33N 40°13' W 073°45'1413.7
2015-Aug-06 04:32N 39°59' W 073°42'1313.7
2015-Aug-06 03:33N 39°46' W 073°40'1413.6
2015-Aug-06 02:34N 39°32' W 073°40'4713.6
2015-Aug-05 23:04N 38°46' W 073°53'3814.0
2015-Aug-05 20:21N 38°13' W 074°17'3 3.9
2015-Aug-05 19:33N 38°11' W 074°20'6 6.4
2015-Aug-05 18:33N 38°06' W 074°25'1413.7
2015-Aug-05 17:33N 37°55' W 074°35'1313.2
2015-Aug-05 16:33N 37°44' W 074°44'1413.1
2015-Aug-05 15:29N 37°32' W 074°54'1212.8
2015-Aug-05 14:33N 37°22' W 075°02'1312.8
2015-Aug-05 13:33N 37°11' W 075°10'1313.0
2015-Aug-05 12:33N 36°59' W 075°18'1313.1
2015-Aug-05 11:33N 36°51' W 075°30'69 3.3
2015-Aug-04 14:28N 37°53' W 076°09'1617.4
2015-Aug-04 13:33N 38°09' W 076°14'1919.6
2015-Aug-04 12:34N 38°27' W 076°22'1818.4
2015-Aug-04 11:33N 38°45' W 076°26'1615.7
2015-Aug-04 10:33N 39°01' W 076°22'1211.9
2015-Aug-04 09:33N 39°12' W 076°29'5 4.9
2015-Aug-04 08:33N 39°15' W 076°33'0 0.0
2015-Aug-04 07:32N 39°15' W 076°33'0 0.0
2015-Aug-04 06:32N 39°15' W 076°33'0 0.0
2015-Aug-04 05:32N 39°15' W 076°33'0 0.0
2015-Aug-04 04:32N 39°15' W 076°33'0 0.0
2015-Aug-04 03:32N 39°15' W 076°33'0 0.0
2015-Aug-04 02:32N 39°15' W 076°33'0 0.0
2015-Aug-04 01:29N 39°15' W 076°33'0 0.0
2015-Aug-04 00:32N 39°15' W 076°33'0 0.0
2015-Aug-03 23:32N 39°15' W 076°33'0 0.0
2015-Aug-03 22:32N 39°15' W 076°33'0 0.0
2015-Aug-03 21:32N 39°15' W 076°33'0 0.0
2015-Aug-03 20:32N 39°15' W 076°33'0 0.0
2015-Aug-03 19:32N 39°15' W 076°33'0 0.0
2015-Aug-03 18:32N 39°15' W 076°33'0 0.0
2015-Aug-03 17:32N 39°15' W 076°33'0 0.0
2015-Aug-03 16:32N 39°15' W 076°33'0 0.0
2015-Aug-03 15:33N 39°15' W 076°33'0 0.0
2015-Aug-03 14:32N 39°15' W 076°33'0 0.0
2015-Aug-03 13:32N 39°15' W 076°33'0 0.0
2015-Aug-03 12:32N 39°15' W 076°33'0 0.0
2015-Aug-03 11:32N 39°15' W 076°33'0 0.0
2015-Aug-03 10:32N 39°15' W 076°33'0 0.0
2015-Aug-03 09:32N 39°15' W 076°33'0 0.0
2015-Aug-03 08:32N 39°15' W 076°33'0 0.0
2015-Aug-03 07:32N 39°15' W 076°33'0 0.0
2015-Aug-03 06:32N 39°15' W 076°33'0 0.0
2015-Aug-03 05:32N 39°15' W 076°33'0 0.0
2015-Aug-03 04:32N 39°15' W 076°33'0 0.0
2015-Aug-03 03:32N 39°15' W 076°33'0 0.0
2015-Aug-03 02:32N 39°15' W 076°33'0 0.0
2015-Aug-03 01:32N 39°15' W 076°33'0 0.0
2015-Aug-03 00:32N 39°15' W 076°33'0 0.0
2015-Aug-02 23:32N 39°15' W 076°33'0 0.0
2015-Aug-02 22:32N 39°15' W 076°33'0 0.0
2015-Aug-02 21:32N 39°15' W 076°33'2 2.4
2015-Aug-02 20:33N 39°13' W 076°32'1110.9
2015-Aug-02 19:33N 39°04' W 076°24'4117.4
2015-Aug-02 17:12N 38°23' W 076°20'1619.3
2015-Aug-02 16:21N 38°08' W 076°13'8213.6
2015-Aug-02 10:18N 36°49' W 075°45'811.2
2015-Aug-02 09:33N 36°43' W 075°37'1514.5
2015-Aug-02 08:34N 36°30' W 075°30'3514.8
2015-Aug-02 06:10N 35°57' W 075°14'7415.6
2015-Aug-02 01:24N 34°43' W 075°23'2018.0
2015-Aug-02 00:19N 34°29' W 075°40'1517.9
2015-Aug-01 23:29N 34°19' W 075°53'  
Track history (hours):
 
Tides and Currents Weather Stations Pressure Air Temp Water Temp Dewpoint Dewpoint Depression Visibility Wind Speed Wind Dir Waves Ship Positions

Ever Diamond

Last reported at 2015-Aug-07 10:09 UTC. Time now 2015-Sep-01 14:13 UTC.
Position N 38°48' W 071°54'.
Warning: this ship's position is 25 days out of date.

Type: Ship (hazmat cat D). MMSI: 354893000.

Date/timePositionNaut miles runAvg speedWind from/ knotsBaromVisibWave heightAir tempDewpointWater temp
2015-Aug-07 10:09N 38°48' W 071°54'1016.2
2015-Aug-07 09:33N 38°55' W 072°02'1616.2
2015-Aug-07 08:34N 39°07' W 072°16'1616.4
2015-Aug-07 07:33N 39°19' W 072°30'1716.6
2015-Aug-07 06:31N 39°32' W 072°45'1616.8
2015-Aug-07 05:34N 39°44' W 072°60'1716.9
2015-Aug-07 04:34N 39°56' W 073°15'1816.9
2015-Aug-07 03:30N 40°10' W 073°30'1616.7
2015-Aug-07 02:34N 40°22' W 073°43'1413.4
2015-Aug-07 01:33N 40°30' W 073°57'1111.2
2015-Aug-07 00:34N 40°39' W 074°06'2 2.1
2015-Aug-06 23:33N 40°40' W 074°08'1 0.8
2015-Aug-06 22:33N 40°41' W 074°09'0 0.0
2015-Aug-06 21:33N 40°41' W 074°09'0 0.0
2015-Aug-06 20:33N 40°41' W 074°09'0 0.0
2015-Aug-06 19:32N 40°41' W 074°09'0 0.0
2015-Aug-06 18:32N 40°41' W 074°09'0 0.0
2015-Aug-06 17:32N 40°41' W 074°09'0 0.0
2015-Aug-06 16:32N 40°41' W 074°09'0 0.0
2015-Aug-06 15:32N 40°41' W 074°09'0 0.0
2015-Aug-06 14:32N 40°41' W 074°09'0 0.0
2015-Aug-06 13:32N 40°41' W 074°09'0 0.0
2015-Aug-06 12:34N 40°41' W 074°09'0 0.0
2015-Aug-06 11:31N 40°41' W 074°09'0 0.1
2015-Aug-06 10:34N 40°41' W 074°09'2 2.4
2015-Aug-06 09:34N 40°39' W 074°09'5 5.1
2015-Aug-06 08:34N 40°36' W 074°03'8 8.4
2015-Aug-06 07:34N 40°30' W 073°56'10 9.6
2015-Aug-06 06:33N 40°23' W 073°46'1010.4
2015-Aug-06 05:33N 40°13' W 073°45'1413.7
2015-Aug-06 04:32N 39°59' W 073°42'1313.7
2015-Aug-06 03:33N 39°46' W 073°40'1413.6
2015-Aug-06 02:34N 39°32' W 073°40'4713.6
2015-Aug-05 23:04N 38°46' W 073°53'3814.0
2015-Aug-05 20:21N 38°13' W 074°17'3 3.9
2015-Aug-05 19:33N 38°11' W 074°20'6 6.4
2015-Aug-05 18:33N 38°06' W 074°25'1413.7
2015-Aug-05 17:33N 37°55' W 074°35'1313.2
2015-Aug-05 16:33N 37°44' W 074°44'1413.1
2015-Aug-05 15:29N 37°32' W 074°54'1212.8
2015-Aug-05 14:33N 37°22' W 075°02'1312.8
2015-Aug-05 13:33N 37°11' W 075°10'1313.0
2015-Aug-05 12:33N 36°59' W 075°18'1313.1
2015-Aug-05 11:33N 36°51' W 075°30'69 3.3
2015-Aug-04 14:28N 37°53' W 076°09'1617.4
2015-Aug-04 13:33N 38°09' W 076°14'1919.6
2015-Aug-04 12:34N 38°27' W 076°22'1818.4
2015-Aug-04 11:33N 38°45' W 076°26'1615.7
2015-Aug-04 10:33N 39°01' W 076°22'1211.9
2015-Aug-04 09:33N 39°12' W 076°29'5 4.9
2015-Aug-04 08:33N 39°15' W 076°33'0 0.0
2015-Aug-04 07:32N 39°15' W 076°33'0 0.0
2015-Aug-04 06:32N 39°15' W 076°33'0 0.0
2015-Aug-04 05:32N 39°15' W 076°33'0 0.0
2015-Aug-04 04:32N 39°15' W 076°33'0 0.0
2015-Aug-04 03:32N 39°15' W 076°33'0 0.0
2015-Aug-04 02:32N 39°15' W 076°33'0 0.0
2015-Aug-04 01:29N 39°15' W 076°33'0 0.0
2015-Aug-04 00:32N 39°15' W 076°33'0 0.0
2015-Aug-03 23:32N 39°15' W 076°33'0 0.0
2015-Aug-03 22:32N 39°15' W 076°33'0 0.0
2015-Aug-03 21:32N 39°15' W 076°33'0 0.0
2015-Aug-03 20:32N 39°15' W 076°33'0 0.0
2015-Aug-03 19:32N 39°15' W 076°33'0 0.0
2015-Aug-03 18:32N 39°15' W 076°33'0 0.0
2015-Aug-03 17:32N 39°15' W 076°33'0 0.0
2015-Aug-03 16:32N 39°15' W 076°33'0 0.0
2015-Aug-03 15:33N 39°15' W 076°33'0 0.0
2015-Aug-03 14:32N 39°15' W 076°33'0 0.0
2015-Aug-03 13:32N 39°15' W 076°33'0 0.0
2015-Aug-03 12:32N 39°15' W 076°33'0 0.0
2015-Aug-03 11:32N 39°15' W 076°33'0 0.0
2015-Aug-03 10:32N 39°15' W 076°33'0 0.0
2015-Aug-03 09:32N 39°15' W 076°33'0 0.0
2015-Aug-03 08:32N 39°15' W 076°33'0 0.0
2015-Aug-03 07:32N 39°15' W 076°33'0 0.0
2015-Aug-03 06:32N 39°15' W 076°33'0 0.0
2015-Aug-03 05:32N 39°15' W 076°33'0 0.0
2015-Aug-03 04:32N 39°15' W 076°33'0 0.0
2015-Aug-03 03:32N 39°15' W 076°33'0 0.0
2015-Aug-03 02:32N 39°15' W 076°33'0 0.0
2015-Aug-03 01:32N 39°15' W 076°33'0 0.0
2015-Aug-03 00:32N 39°15' W 076°33'0 0.0
2015-Aug-02 23:32N 39°15' W 076°33'0 0.0
2015-Aug-02 22:32N 39°15' W 076°33'0 0.0
2015-Aug-02 21:32N 39°15' W 076°33'2 2.4
2015-Aug-02 20:33N 39°13' W 076°32'1110.9
2015-Aug-02 19:33N 39°04' W 076°24'4117.4
2015-Aug-02 17:12N 38°23' W 076°20'1619.3
2015-Aug-02 16:21N 38°08' W 076°13'8213.6
2015-Aug-02 10:18N 36°49' W 075°45'811.2
2015-Aug-02 09:33N 36°43' W 075°37'1514.5
2015-Aug-02 08:34N 36°30' W 075°30'3514.8
2015-Aug-02 06:10N 35°57' W 075°14'7415.6
2015-Aug-02 01:24N 34°43' W 075°23'2018.0
2015-Aug-02 00:19N 34°29' W 075°40'1517.9
2015-Aug-01 23:29N 34°19' W 075°53'  

Dump ship's entire track history